createdAt,value
2022-11-27T00:04:46.134Z,62.69
2022-11-27T00:09:48.876Z,62.63
2022-11-27T00:14:55.598Z,62.69
2022-11-27T00:19:58.549Z,62.76
2022-11-27T00:25:01.425Z,62.94
2022-11-27T00:30:06.484Z,62.83
2022-11-27T00:35:10.110Z,63.13
2022-11-27T00:40:13.640Z,63.25
2022-11-27T00:45:17.897Z,63.39
2022-11-27T00:50:20.991Z,63.50
2022-11-27T00:55:23.967Z,63.86
2022-11-27T01:00:28.078Z,63.78
2022-11-27T01:05:30.804Z,64.06
2022-11-27T01:10:33.556Z,64.28
2022-11-27T01:15:37.736Z,64.26
2022-11-27T01:20:40.873Z,64.42
2022-11-27T01:25:43.601Z,64.47
2022-11-27T01:30:47.924Z,64.66
2022-11-27T01:35:58.104Z,64.70
2022-11-27T01:41:01.839Z,64.86
2022-11-27T01:46:07.267Z,64.81
2022-11-27T01:51:10.140Z,64.73
2022-11-27T01:56:13.195Z,65.21
2022-11-27T02:01:17.734Z,65.25
2022-11-27T02:06:20.584Z,65.04
2022-11-27T02:11:31.328Z,65.26
2022-11-27T02:16:47.788Z,65.11
2022-11-27T02:22:02.849Z,65.06
2022-11-27T02:27:34.609Z,65.22
2022-11-27T02:32:43.237Z,65.51
2022-11-27T02:37:50.528Z,65.67
2022-11-27T02:42:58.923Z,65.53
2022-11-27T02:48:05.755Z,65.74
2022-11-27T02:53:13.287Z,65.79
2022-11-27T02:58:21.197Z,66.03
2022-11-27T03:03:29.643Z,66.17
2022-11-27T03:08:38.396Z,66.55
2022-11-27T03:13:45.107Z,66.67
2022-11-27T03:18:59.963Z,66.56
2022-11-27T03:24:02.746Z,66.95
2022-11-27T03:29:10.891Z,66.99
2022-11-27T03:34:16.249Z,67.41
2022-11-27T03:39:20.239Z,67.68
2022-11-27T03:44:30.330Z,68.06
2022-11-27T03:49:48.945Z,68.40
2022-11-27T03:54:58.682Z,68.64
2022-11-27T04:00:04.965Z,68.84
2022-11-27T04:05:10.414Z,68.94
2022-11-27T04:10:13.855Z,69.13
2022-11-27T04:15:16.690Z,69.53
2022-11-27T04:20:20.910Z,69.67
2022-11-27T04:25:24.213Z,69.73
2022-11-27T04:30:26.954Z,69.68
2022-11-27T04:35:31.096Z,70.01
2022-11-27T04:40:33.894Z,70.20
2022-11-27T04:45:36.805Z,70.48
2022-11-27T04:50:40.990Z,70.52
2022-11-27T04:55:43.733Z,70.54
2022-11-27T05:00:46.541Z,70.81
2022-11-27T05:05:57.431Z,71.02
2022-11-27T05:11:02.143Z,71.16
2022-11-27T05:16:05.941Z,71.19
2022-11-27T05:21:10.112Z,71.42
2022-11-27T05:26:12.871Z,71.64
2022-11-27T05:31:15.719Z,71.76
2022-11-27T05:36:20.247Z,71.85
2022-11-27T05:41:23.050Z,72.18
2022-11-27T05:46:25.928Z,72.40
2022-11-27T05:51:30.137Z,72.50
2022-11-27T05:56:32.929Z,72.39
2022-11-27T06:01:35.672Z,72.53
2022-11-27T06:06:39.847Z,72.81
2022-11-27T06:11:43.136Z,72.92
2022-11-27T06:16:45.938Z,73.00
2022-11-27T06:21:50.106Z,73.30
2022-11-27T06:26:53.025Z,73.38
2022-11-27T06:31:55.919Z,73.35
2022-11-27T06:37:00.048Z,73.39
2022-11-27T06:42:03.246Z,73.40
2022-11-27T06:47:06.165Z,73.62
2022-11-27T06:52:10.324Z,73.80
2022-11-27T06:57:14.497Z,73.84
2022-11-27T07:02:17.359Z,74.00
2022-11-27T07:07:21.650Z,74.07
2022-11-27T07:12:24.532Z,74.18
2022-11-27T07:17:27.344Z,74.28
2022-11-27T07:22:33.127Z,74.08
2022-11-27T07:27:35.893Z,74.08
2022-11-27T07:32:38.868Z,74.18
2022-11-27T07:37:43.213Z,74.24
2022-11-27T07:42:46.374Z,74.26
2022-11-27T07:47:49.122Z,74.21
2022-11-27T07:52:53.361Z,74.23
2022-11-27T07:57:56.100Z,74.16
2022-11-27T08:02:59.867Z,74.28
2022-11-27T08:08:05.209Z,74.16
2022-11-27T08:13:08.920Z,73.69
2022-11-27T08:18:11.787Z,73.03
2022-11-27T08:23:15.992Z,72.25
2022-11-27T08:28:18.805Z,72.04
2022-11-27T08:33:21.562Z,71.73
2022-11-27T08:38:26.076Z,64.39
2022-11-27T08:43:29.969Z,62.23
2022-11-27T08:48:32.825Z,55.13
2022-11-27T08:53:37.581Z,58.54
2022-11-27T08:58:41.060Z,63.23
2022-11-27T09:03:44.948Z,63.36
2022-11-27T09:08:49.435Z,63.25
2022-11-27T09:13:52.533Z,63.09
2022-11-27T09:18:55.420Z,63.83
2022-11-27T09:24:01.773Z,64.51
2022-11-27T09:29:04.956Z,64.62
2022-11-27T09:34:07.732Z,64.97
2022-11-27T09:39:13.729Z,65.11
2022-11-27T09:44:28.743Z,65.94
2022-11-27T09:49:42.753Z,66.47
2022-11-27T09:54:54.894Z,66.92
2022-11-27T10:00:02.620Z,67.15
2022-11-27T10:05:18.672Z,67.49
2022-11-27T10:10:37.919Z,67.74
2022-11-27T10:15:48.942Z,67.85
2022-11-27T10:20:57.547Z,67.81
2022-11-27T10:26:08.785Z,68.07
2022-11-27T10:31:15.036Z,68.26
2022-11-27T10:36:23.070Z,68.24
2022-11-27T10:42:01.333Z,68.26
2022-11-27T10:47:02.441Z,68.32
2022-11-27T10:52:05.517Z,68.38
2022-11-27T10:57:51.837Z,68.24
2022-11-27T11:03:01.449Z,68.43
2022-11-27T11:08:06.133Z,68.03
2022-11-27T11:13:19.276Z,67.71
2022-11-27T11:18:24.575Z,67.41
2022-11-27T11:23:31.286Z,67.11
2022-11-27T11:28:43.160Z,66.69
2022-11-27T11:33:54.065Z,67.02
2022-11-27T11:38:57.621Z,66.38
2022-11-27T11:44:03.305Z,66.38
2022-11-27T11:49:08.976Z,66.64
2022-11-27T11:54:26.568Z,66.73
2022-11-27T11:59:45.323Z,67.46
2022-11-27T12:05:04.505Z,69.35
2022-11-27T12:10:16.555Z,68.70
2022-11-27T12:15:27.351Z,68.35
2022-11-27T12:20:50.157Z,59.96
2022-11-27T12:26:05.171Z,52.89
2022-11-27T12:31:22.992Z,53.84
2022-11-27T12:36:51.068Z,53.49
2022-11-27T12:42:01.721Z,50.14
2022-11-27T12:47:12.995Z,53.84
2022-11-27T12:52:20.079Z,50.21
2022-11-27T12:57:28.424Z,50.41
2022-11-27T13:02:37.252Z,54.14
2022-11-27T13:07:47.176Z,55.72
2022-11-27T13:12:57.763Z,55.94
2022-11-27T13:18:12.139Z,56.12
2022-11-27T13:23:15.087Z,56.70
2022-11-27T13:28:26.068Z,57.32
2022-11-27T13:33:38.690Z,57.91
2022-11-27T13:38:42.596Z,58.27
2022-11-27T13:43:48.272Z,58.72
2022-11-27T13:48:56.513Z,58.90
2022-11-27T13:54:13.201Z,59.47
2022-11-27T13:59:18.052Z,59.82
2022-11-27T14:04:22.212Z,59.95
2022-11-27T14:09:36.125Z,60.01
2022-11-27T14:14:39.263Z,60.31
2022-11-27T14:19:46.192Z,60.62
2022-11-27T14:24:56.058Z,60.96
2022-11-27T14:29:59.215Z,61.47
2022-11-27T14:35:03.503Z,61.80
2022-11-27T14:40:14.697Z,61.88
2022-11-27T14:45:20.898Z,62.43
2022-11-27T14:50:25.251Z,62.74
2022-11-27T14:55:34.420Z,62.97
2022-11-27T15:00:37.539Z,63.48
2022-11-27T15:05:41.714Z,63.71
2022-11-27T15:10:44.558Z,64.06
2022-11-27T15:15:57.263Z,64.11
2022-11-27T15:21:03.385Z,64.46
2022-11-27T15:26:14.961Z,64.76
2022-11-27T15:31:26.123Z,64.95
2022-11-27T15:36:38.317Z,64.94
2022-11-27T15:41:51.982Z,65.18
2022-11-27T15:46:57.301Z,65.34
2022-11-27T15:52:01.695Z,65.64
2022-11-27T15:57:04.839Z,65.85
2022-11-27T16:02:10.190Z,66.03
2022-11-27T16:07:16.390Z,66.12
2022-11-27T16:12:19.360Z,66.33
2022-11-27T16:17:22.143Z,66.22
2022-11-27T16:22:26.407Z,66.24
2022-11-27T16:27:29.264Z,66.36
2022-11-27T16:32:32.152Z,66.34
2022-11-27T16:37:36.266Z,66.30
2022-11-27T16:42:39.563Z,66.42
2022-11-27T16:47:42.504Z,66.38
2022-11-27T16:52:52.864Z,66.46
2022-11-27T16:57:57.414Z,66.47
2022-11-27T17:03:00.229Z,66.55
2022-11-27T17:08:04.538Z,66.42
2022-11-27T17:13:07.425Z,66.60
2022-11-27T17:18:11.406Z,66.50
2022-11-27T17:23:15.749Z,66.53
2022-11-27T17:28:18.748Z,66.67
2022-11-27T17:33:21.534Z,66.54
2022-11-27T17:38:25.726Z,66.85
2022-11-27T17:43:30.366Z,66.99
2022-11-27T17:48:34.858Z,66.96
2022-11-27T17:53:39.583Z,67.19
2022-11-27T17:58:44.475Z,67.22
2022-11-27T18:03:49.086Z,67.43
2022-11-27T18:08:55.255Z,67.51
2022-11-27T18:13:58.262Z,67.65
2022-11-27T18:19:04.663Z,67.51
2022-11-27T18:24:25.346Z,67.58
2022-11-27T18:29:28.530Z,67.50
2022-11-27T18:34:31.365Z,67.56
2022-11-27T18:39:36.380Z,67.54
2022-11-27T18:44:44.993Z,67.41
2022-11-27T18:49:49.010Z,67.41
2022-11-27T18:54:53.268Z,67.35
2022-11-27T18:59:56.257Z,67.26
2022-11-27T19:04:59.087Z,67.24
2022-11-27T19:10:03.471Z,67.08
2022-11-27T19:15:07.803Z,66.89
2022-11-27T19:20:11.549Z,66.94
2022-11-27T19:25:15.921Z,68.28
2022-11-27T19:30:19.408Z,69.41
2022-11-27T19:35:25.192Z,68.42
2022-11-27T19:40:32.756Z,68.59
2022-11-27T19:45:37.434Z,68.82
2022-11-27T19:50:40.481Z,69.10
2022-11-27T19:55:44.802Z,68.92
2022-11-27T20:00:48.151Z,69.07
2022-11-27T20:05:54.351Z,68.74
2022-11-27T20:11:01.901Z,69.05
2022-11-27T20:16:08.305Z,69.11
2022-11-27T20:21:14.366Z,68.97
2022-11-27T20:26:21.976Z,68.95
2022-11-27T20:31:26.815Z,68.91
2022-11-27T20:36:31.555Z,68.85
2022-11-27T20:41:35.875Z,68.92
2022-11-27T20:46:39.283Z,68.70
2022-11-27T20:51:42.189Z,68.65
2022-11-27T20:56:47.530Z,68.28
2022-11-27T21:01:50.508Z,68.20
2022-11-27T21:06:53.625Z,67.88
2022-11-27T21:11:57.767Z,67.49
2022-11-27T21:17:04.979Z,67.00
2022-11-27T21:22:09.959Z,66.68
2022-11-27T21:27:14.119Z,66.39
2022-11-27T21:32:18.133Z,66.08
2022-11-27T21:37:23.850Z,65.76
2022-11-27T21:42:29.200Z,65.36
2022-11-27T21:47:32.028Z,65.15
2022-11-27T21:52:35.554Z,65.00
2022-11-27T21:57:40.157Z,64.74
2022-11-27T22:02:44.530Z,64.61
2022-11-27T22:07:47.434Z,64.50
2022-11-27T22:12:51.847Z,64.36
2022-11-27T22:17:54.617Z,64.30
2022-11-27T22:22:57.747Z,64.16
2022-11-27T22:28:01.881Z,64.18
2022-11-27T22:33:07.245Z,64.12
2022-11-27T22:38:10.168Z,63.87
2022-11-27T22:43:14.327Z,63.90
2022-11-27T22:48:17.276Z,63.97
2022-11-27T22:53:20.197Z,63.68
2022-11-27T22:58:28.796Z,63.78
2022-11-27T23:03:33.222Z,63.47
2022-11-27T23:08:36.173Z,63.46
2022-11-27T23:13:42.828Z,63.54
2022-11-27T23:18:50.656Z,63.45
2022-11-27T23:23:53.561Z,63.35
2022-11-27T23:28:58.032Z,63.45
2022-11-27T23:34:02.374Z,63.47
2022-11-27T23:39:06.776Z,63.26
2022-11-27T23:44:10.976Z,63.19
2022-11-27T23:49:13.765Z,63.08
2022-11-27T23:54:16.591Z,63.05
2022-11-27T23:59:21.171Z,63.15
